Grand Junction, CO (81504)

5:38 PM MST on February 27, 2015 (GMT -0700)
Clifton Area - SE of Patterson and 31.5 Rd | Change Station
CLOSE
Current Station
Personal Weather Station
Location: Grand Junction, CO
Elevation: 4737 ft
Nearby Weather Stations

Elev 4737 ft 39.09 °N, 108.47 °W | Updated 2 minutes ago

Partly Cloudy
Partly Cloudy
41.3 °F
Feels Like 41 °F
N
3.0
Wind Variable Wind from WNW
Gusts 5.0 mph

Today
High -- | Low -- °F
--% Chance of Precip.
Yesterday
High -- | Low -- °F
Precip. -- in
6:49 AM 6:04 PM
Waxing Gibbous, 73% visible
Pressure 29.73 in
Visibility 10.0 miles
Clouds Few 10000 ft
Windchill 41 °F
Dew Point 26 °F
Humidity 53%
Rainfall 0.02 in
Snow Depth Not available.
UV 1 out of 12
Pollen 2.10 out of 12
Air Quality Not available.
Flu Activity Not available.
METAR KGJT 272353Z 30007KT 10SM FEW100 04/M04 A2973 RMK AO2 SLP068 T00391044 10061 20006 56009

More Conditions Fewer Conditions

Pressure 29.73 in
Visibility 10.0 miles
Clouds Few 10000 ft
Windchill 41 °F
Dew Point 26 °F
Humidity 53%
Rainfall 0.02 in
Snow Depth Not available.
UV 1 out of 12
Pollen 2.10 out of 12
Air Quality Not available.
Flu Activity Not available.
METAR KGJT 272353Z 30007KT 10SM FEW100 04/M04 A2973 RMK AO2 SLP068 T00391044 10061 20006 56009

More Conditions Fewer Conditions

10-Day Weather Forecast

Almanac

Astronomy

Feb. 27, 2015 Rise Set
Actual Time
Civil Twilight
Nautical Twilight
Astronomical Twilight
Moon
Length of Visible Light
Length of Day
Tomorrow will be .
, % of the Moon is Illuminated

Today's Extremes

State Highs State Lows

Community

WunderPhotos

Upload Photos

1,800,904 photos uploaded!

WunderBlogs® & News

Nearby

Air Quality

  Air Quality AQ Index Pollutant
Not available.

Snow Depth

Station Depth Elevation

Earthquake Activity

City Distance Mag. Time & Date
Minimum magnitude displayed is 2.5.

Coastal Water Temperatures

Place Temperature

Nearby Weather Stations